createdAt,value
2019-01-19T04:30:51.456Z,999.76
2019-01-19T04:42:51.311Z,999.64
2019-01-19T04:44:51.298Z,999.68
2019-01-19T07:29:50.540Z,999.33
2019-01-19T08:44:14.582Z,999.44
2019-01-19T09:41:13.995Z,999.30
2019-01-19T09:46:13.953Z,999.30
2019-01-19T09:49:13.918Z,999.32
2019-01-19T09:59:38.706Z,999.27
2019-01-19T10:00:45.400Z,999.26
2019-01-19T10:02:03.669Z,999.32
2019-01-19T10:03:03.648Z,999.23
2019-01-19T10:04:03.653Z,999.23
2019-01-19T10:05:03.634Z,999.24
2019-01-19T10:06:03.632Z,999.19
2019-01-19T10:07:03.619Z,999.17
2019-01-19T10:08:03.618Z,999.14
2019-01-19T10:09:03.599Z,999.16
2019-01-19T10:10:03.592Z,999.16
2019-01-19T10:11:03.574Z,999.17
2019-01-19T10:12:03.557Z,999.18
2019-01-19T10:13:03.546Z,999.13
2019-01-19T10:14:04.216Z,999.18
2019-01-19T10:15:03.539Z,999.13
2019-01-19T10:16:03.520Z,999.14
2019-01-19T10:17:03.511Z,999.10
2019-01-19T10:18:03.496Z,999.13
2019-01-19T10:19:03.489Z,999.08
2019-01-19T10:20:03.489Z,999.07
2019-01-19T10:21:03.503Z,999.05
2019-01-19T10:22:03.485Z,999.08
2019-01-19T10:23:03.447Z,999.04
2019-01-19T10:24:03.448Z,999.07
2019-01-19T10:25:03.425Z,999.04
2019-01-19T10:26:03.418Z,999.04
2019-01-19T10:27:03.447Z,999.02
2019-01-19T10:28:03.394Z,999.03
2019-01-19T10:29:03.387Z,998.97
2019-01-19T10:30:03.373Z,998.96
2019-01-19T10:31:03.358Z,998.96
2019-01-19T10:32:03.366Z,998.93
2019-01-19T10:33:03.354Z,998.94
2019-01-19T10:34:03.340Z,998.87
2019-01-19T10:35:03.320Z,998.89
2019-01-19T10:36:03.363Z,998.93
2019-01-19T10:37:03.305Z,998.85
2019-01-19T10:38:03.297Z,998.85
2019-01-19T10:39:03.291Z,998.84
2019-01-19T10:40:03.292Z,998.76
2019-01-19T10:41:03.267Z,998.78
2019-01-19T10:42:03.323Z,998.74
2019-01-19T10:43:03.246Z,998.73
2019-01-19T10:44:03.223Z,998.70
2019-01-19T10:53:36.229Z,998.60
2019-01-19T10:53:36.332Z,998.61
2019-01-19T10:53:36.348Z,998.61
2019-01-19T10:54:28.718Z,998.62
2019-01-19T10:55:28.763Z,998.54
2019-01-19T10:56:28.683Z,998.59
2019-01-19T10:57:28.673Z,998.55
2019-01-19T10:58:28.668Z,998.53
2019-01-19T10:59:28.660Z,998.53
2019-01-19T11:00:28.642Z,998.47
2019-01-19T11:01:28.673Z,998.46
2019-01-19T11:02:28.653Z,998.47
2019-01-19T11:03:28.610Z,998.47
2019-01-19T11:04:28.613Z,998.46
2019-01-19T11:05:28.593Z,998.51
2019-01-19T11:06:28.927Z,998.42
2019-01-19T11:07:28.573Z,998.44
2019-01-19T11:08:28.560Z,998.39
2019-01-19T11:09:28.545Z,998.42
2019-01-19T11:10:28.536Z,998.39
2019-01-19T11:11:28.555Z,998.42
2019-01-19T11:12:28.552Z,998.37
2019-01-19T11:13:28.508Z,998.31
2019-01-19T11:14:28.492Z,998.37
2019-01-19T11:15:28.502Z,998.36
2019-01-19T11:16:28.475Z,998.28
2019-01-19T11:17:28.464Z,998.30
2019-01-19T11:18:28.456Z,998.31
2019-01-19T11:19:28.442Z,998.29
2019-01-19T11:20:28.443Z,998.30
2019-01-19T11:21:28.420Z,998.26
2019-01-19T11:22:28.415Z,998.29
2019-01-19T11:23:28.398Z,998.26
2019-01-19T11:24:28.385Z,998.22
2019-01-19T11:25:28.376Z,998.21
2019-01-19T11:26:28.397Z,998.16
2019-01-19T11:27:28.361Z,998.16
2019-01-19T11:28:28.351Z,998.10
2019-01-19T11:29:28.357Z,998.15
2019-01-19T11:30:28.333Z,998.10
2019-01-19T11:31:28.310Z,998.10
2019-01-19T11:32:29.371Z,998.07
2019-01-19T11:33:28.339Z,998.04
2019-01-19T11:34:28.282Z,998.09
2019-01-19T11:35:28.273Z,998.04
2019-01-19T11:36:28.262Z,998.03
2019-01-19T11:37:28.266Z,997.99
2019-01-19T11:38:28.256Z,997.97
2019-01-19T11:39:28.246Z,997.96
2019-01-19T11:40:28.239Z,997.96
2019-01-19T11:41:28.207Z,997.98
2019-01-19T11:42:28.251Z,997.94
2019-01-19T11:43:28.183Z,997.91
2019-01-19T11:44:28.189Z,997.90
2019-01-19T11:45:28.162Z,997.91
2019-01-19T11:46:28.156Z,997.91
2019-01-19T11:47:28.137Z,997.87
2019-01-19T11:48:28.149Z,997.89
2019-01-19T11:49:28.117Z,997.88
2019-01-19T11:50:28.157Z,997.90
2019-01-19T11:51:28.104Z,997.84
2019-01-19T11:52:28.104Z,997.84
2019-01-19T11:53:28.082Z,997.80
2019-01-19T11:54:28.091Z,997.78
2019-01-19T11:55:28.053Z,997.74
2019-01-19T11:56:28.063Z,997.78
2019-01-19T11:57:28.046Z,997.80
2019-01-19T11:58:28.041Z,997.81
2019-01-19T11:59:28.013Z,997.83
2019-01-19T12:00:27.997Z,997.81
2019-01-19T12:01:28.023Z,997.80
2019-01-19T12:02:27.979Z,997.84
2019-01-19T12:03:28.001Z,997.79
2019-01-19T12:04:27.955Z,997.75
2019-01-19T12:05:27.949Z,997.82
2019-01-19T12:06:27.941Z,997.79
2019-01-19T12:07:27.929Z,997.74
2019-01-19T12:08:27.937Z,997.77
2019-01-19T12:09:27.932Z,997.73
2019-01-19T12:10:27.891Z,997.69
2019-01-19T12:11:27.882Z,997.76
2019-01-19T12:12:27.879Z,997.65
2019-01-19T12:13:27.862Z,997.71
2019-01-19T12:14:27.850Z,997.68
2019-01-19T12:15:27.837Z,997.63
2019-01-19T12:16:27.938Z,997.61
2019-01-19T12:17:27.820Z,997.59
2019-01-19T12:18:27.871Z,997.62
2019-01-19T12:19:27.798Z,997.55
2019-01-19T12:20:27.779Z,997.57
2019-01-19T12:21:27.786Z,997.58
2019-01-19T12:22:27.761Z,997.45
2019-01-19T12:23:27.762Z,997.42
2019-01-19T12:24:27.740Z,997.47
2019-01-19T12:25:27.732Z,997.43
2019-01-19T12:26:27.726Z,997.38
2019-01-19T12:27:27.800Z,997.41
2019-01-19T12:28:27.692Z,997.37
2019-01-19T12:29:27.684Z,997.38
2019-01-19T12:30:27.672Z,997.32
2019-01-19T12:31:27.675Z,997.38
2019-01-19T12:32:27.649Z,997.36
2019-01-19T12:33:27.656Z,997.33
2019-01-19T12:34:27.659Z,997.30
2019-01-19T12:35:27.620Z,997.33
2019-01-19T12:36:27.604Z,997.29
2019-01-19T12:37:27.607Z,997.33
2019-01-19T12:38:27.588Z,997.27
2019-01-19T12:39:28.000Z,997.25
2019-01-19T12:40:27.571Z,997.26
2019-01-19T12:41:27.550Z,997.27
2019-01-19T12:42:27.543Z,997.28
2019-01-19T12:43:27.534Z,997.24
2019-01-19T12:44:27.533Z,997.30
2019-01-19T12:45:27.517Z,997.22
2019-01-19T12:46:27.502Z,997.26
2019-01-19T12:47:27.498Z,997.22
2019-01-19T12:48:27.475Z,997.19
2019-01-19T12:49:27.489Z,997.18
2019-01-19T12:50:28.611Z,997.21
2019-01-19T12:51:27.448Z,997.17
2019-01-19T12:52:27.430Z,997.19
2019-01-19T12:53:27.423Z,997.16
2019-01-19T12:54:27.411Z,997.12
2019-01-19T12:55:27.427Z,997.14
2019-01-19T12:56:27.434Z,997.08
2019-01-19T12:57:27.384Z,997.08
2019-01-19T12:58:27.513Z,997.08
2019-01-19T12:59:27.360Z,997.03
2019-01-19T13:00:27.348Z,997.00
2019-01-19T13:01:27.342Z,997.00
2019-01-19T13:02:27.322Z,997.02
2019-01-19T13:03:27.389Z,996.98
2019-01-19T13:04:27.300Z,996.94
2019-01-19T13:05:27.289Z,996.97
2019-01-19T13:06:27.279Z,996.94
2019-01-19T13:07:27.268Z,996.98
2019-01-19T13:08:34.188Z,996.94
2019-01-19T13:09:28.245Z,996.93
2019-01-19T13:10:27.251Z,997.00
2019-01-19T13:11:27.228Z,996.95
2019-01-19T13:12:27.213Z,996.94
2019-01-19T13:13:27.297Z,996.88
2019-01-19T13:14:27.212Z,996.93
2019-01-19T13:15:27.183Z,996.86
2019-01-19T13:16:27.174Z,996.84
2019-01-19T13:17:27.164Z,996.84
2019-01-19T13:18:27.237Z,996.80
2019-01-19T13:19:27.177Z,996.79
2019-01-19T13:20:27.168Z,996.75
2019-01-19T13:21:27.122Z,996.74
2019-01-19T13:22:27.139Z,996.70
2019-01-19T13:23:27.097Z,996.70
2019-01-19T13:24:27.086Z,996.65
2019-01-19T13:25:27.114Z,996.66
2019-01-19T13:26:27.079Z,996.66
2019-01-19T13:27:27.063Z,996.66
2019-01-19T13:28:27.036Z,996.65
2019-01-19T13:29:27.028Z,996.64
2019-01-19T13:30:27.019Z,996.62
2019-01-19T13:31:27.156Z,996.59
2019-01-19T13:32:27.035Z,996.59
2019-01-19T13:33:26.989Z,996.61
2019-01-19T13:34:26.981Z,996.62
2019-01-19T13:35:27.015Z,996.59
2019-01-19T13:36:26.953Z,996.61
2019-01-19T13:37:26.948Z,996.59
2019-01-19T13:38:26.984Z,996.59
2019-01-19T13:39:26.936Z,996.57
2019-01-19T13:40:26.919Z,996.56
2019-01-19T13:41:26.897Z,996.59
2019-01-19T13:42:26.943Z,996.55
2019-01-19T13:43:26.882Z,996.50
2019-01-19T13:44:26.873Z,996.49
2019-01-19T13:45:26.905Z,996.56
2019-01-19T13:46:26.847Z,996.58
2019-01-19T13:47:26.835Z,996.56
2019-01-19T13:48:26.821Z,996.54
2019-01-19T13:49:26.814Z,996.56
2019-01-19T13:50:26.801Z,996.55
2019-01-19T13:51:26.798Z,996.52
2019-01-19T13:52:26.795Z,996.50
2019-01-19T13:53:26.779Z,996.58
2019-01-19T13:54:26.770Z,996.54
2019-01-19T13:55:26.744Z,996.61
2019-01-19T13:56:26.758Z,996.61
2019-01-19T13:57:26.725Z,996.57
2019-01-19T13:58:26.713Z,996.58
2019-01-19T13:59:26.724Z,996.54
2019-01-19T14:00:26.694Z,996.58
2019-01-19T14:01:26.678Z,996.58
2019-01-19T14:02:26.677Z,996.54
2019-01-19T14:03:26.662Z,996.52
2019-01-19T14:04:26.741Z,996.54
2019-01-19T14:05:26.693Z,996.55
2019-01-19T14:06:26.630Z,996.54
2019-01-19T14:07:26.632Z,996.50
2019-01-19T14:08:26.604Z,996.48
2019-01-19T14:09:26.609Z,996.52
2019-01-19T14:10:26.588Z,996.50
2019-01-19T14:11:26.575Z,996.48
2019-01-19T14:12:26.576Z,996.49
2019-01-19T14:13:26.547Z,996.47
2019-01-19T14:14:26.541Z,996.46
2019-01-19T14:15:26.529Z,996.57
2019-01-19T14:16:26.522Z,996.50
2019-01-19T14:17:26.506Z,996.51
2019-01-19T14:18:26.521Z,996.47
2019-01-19T14:19:26.489Z,996.49
2019-01-19T14:20:26.481Z,996.47
2019-01-19T14:21:26.469Z,996.48
2019-01-19T14:22:26.464Z,996.45
2019-01-19T14:23:26.439Z,996.50
2019-01-19T14:24:26.434Z,996.43
2019-01-19T14:25:26.431Z,996.43
2019-01-19T14:26:26.434Z,996.40
2019-01-19T14:27:26.399Z,996.44
2019-01-19T14:28:26.386Z,996.38
2019-01-19T14:29:26.404Z,996.38
2019-01-19T14:30:26.379Z,996.39
2019-01-19T14:31:26.356Z,996.39
2019-01-19T14:32:26.343Z,996.33
2019-01-19T14:33:26.335Z,996.32
2019-01-19T14:34:26.327Z,996.32
2019-01-19T14:35:26.316Z,996.34
2019-01-19T14:36:26.301Z,996.32
2019-01-19T14:37:26.331Z,996.23
2019-01-19T14:38:26.295Z,996.27
2019-01-19T14:39:26.285Z,996.28
2019-01-19T14:40:26.260Z,996.21
2019-01-19T14:41:26.263Z,996.22
2019-01-19T14:42:26.244Z,996.28
2019-01-19T14:43:26.231Z,996.21
2019-01-19T14:44:26.348Z,996.24
2019-01-19T14:45:26.204Z,996.20
2019-01-19T14:46:26.198Z,996.17
2019-01-19T14:47:26.228Z,996.20
2019-01-19T14:48:26.171Z,996.15
2019-01-19T14:49:26.184Z,996.20
2019-01-19T14:50:26.151Z,996.17
2019-01-19T14:51:26.164Z,996.13
2019-01-19T14:52:26.162Z,996.08
2019-01-19T14:53:26.139Z,996.18
2019-01-19T14:54:26.113Z,996.13
2019-01-19T14:55:26.096Z,996.11
2019-01-19T14:56:26.085Z,996.09
2019-01-19T14:57:26.083Z,996.12
2019-01-19T14:58:26.065Z,996.06
2019-01-19T14:59:26.052Z,996.09
2019-01-19T15:00:26.041Z,996.10
2019-01-19T15:01:26.046Z,996.12
2019-01-19T15:02:26.024Z,996.11
2019-01-19T15:03:26.014Z,996.11
2019-01-19T15:04:26.003Z,996.11
2019-01-19T15:05:25.997Z,996.06
2019-01-19T15:06:25.981Z,996.11
2019-01-19T15:07:25.975Z,996.08
2019-01-19T15:08:25.973Z,996.07
2019-01-19T15:09:25.951Z,996.03
2019-01-19T15:10:25.957Z,996.14
2019-01-19T15:11:26.007Z,996.17
2019-01-19T15:12:25.931Z,996.10
2019-01-19T15:13:25.970Z,996.08
2019-01-19T15:14:25.896Z,996.11
2019-01-19T15:15:25.893Z,996.07
2019-01-19T15:16:25.898Z,996.10
2019-01-19T15:17:25.863Z,996.11
2019-01-19T15:18:25.914Z,996.12
2019-01-19T15:19:25.849Z,996.09
2019-01-19T15:20:25.832Z,996.09
2019-01-19T15:21:25.848Z,996.10
2019-01-19T15:22:25.810Z,996.10
2019-01-19T15:23:25.800Z,996.06
2019-01-19T15:24:25.807Z,996.08
2019-01-19T15:25:25.781Z,996.12
2019-01-19T15:26:25.773Z,996.16
2019-01-19T15:27:25.761Z,996.12
2019-01-19T15:28:25.877Z,996.11
2019-01-19T15:29:25.743Z,996.11
2019-01-19T15:30:25.786Z,996.06
2019-01-19T15:31:25.724Z,996.08
2019-01-19T15:32:25.721Z,996.08
2019-01-19T15:33:25.702Z,996.14
2019-01-19T15:34:25.690Z,996.12
2019-01-19T15:35:25.678Z,996.07
2019-01-19T15:36:25.666Z,996.12
2019-01-19T15:37:25.660Z,996.09
2019-01-19T15:38:25.657Z,996.12
2019-01-19T15:39:25.634Z,996.03
2019-01-19T15:40:25.627Z,996.01
2019-01-19T15:41:25.615Z,996.01
2019-01-19T15:42:25.621Z,996.01
2019-01-19T15:43:25.594Z,995.99
2019-01-19T15:44:25.585Z,996.04
2019-01-19T15:45:25.576Z,996.01
2019-01-19T15:46:25.572Z,996.03
2019-01-19T15:47:25.553Z,996.06
2019-01-19T15:48:25.595Z,996.04
2019-01-19T15:49:25.531Z,996.06
2019-01-19T15:50:25.577Z,995.99
2019-01-19T15:51:25.533Z,996.08
2019-01-19T15:52:25.499Z,996.05
2019-01-19T16:16:50.888Z,995.99
2019-01-19T16:19:50.873Z,996.00
2019-01-19T16:20:50.861Z,995.99
2019-01-19T16:21:50.846Z,995.97
2019-01-19T16:22:50.824Z,996.00
2019-01-19T16:23:50.816Z,995.99
2019-01-19T16:25:50.808Z,995.97
2019-01-19T16:26:50.813Z,995.98
2019-01-19T16:27:50.774Z,995.95
2019-01-19T16:31:50.739Z,996.00
2019-01-19T21:43:47.482Z,996.02
2019-01-19T22:11:47.158Z,996.05
